createdAt,value
2018-06-19T00:00:30.458Z,3.57
2018-06-19T00:02:59.438Z,3.00
2018-06-19T00:05:31.771Z,3.50
2018-06-19T00:08:02.093Z,3.30
2018-06-19T00:10:31.382Z,3.47
2018-06-19T00:12:59.843Z,3.70
2018-06-19T00:15:28.292Z,3.43
2018-06-19T00:18:03.511Z,3.40
2018-06-19T00:20:31.969Z,3.00
2018-06-19T00:23:00.517Z,3.60
2018-06-19T00:25:29.003Z,3.40
2018-06-19T00:27:57.527Z,4.03
2018-06-19T00:30:25.983Z,3.90
2018-06-19T00:32:54.506Z,3.60
2018-06-19T00:35:22.994Z,3.50
2018-06-19T00:37:51.458Z,3.40
2018-06-19T00:40:19.901Z,3.83
2018-06-19T00:42:48.374Z,4.30
2018-06-19T00:45:16.827Z,4.27
2018-06-19T00:47:45.338Z,3.97
2018-06-19T00:50:13.794Z,4.00
2018-06-19T00:52:42.256Z,3.73
2018-06-19T00:55:10.749Z,3.50
2018-06-19T00:57:39.217Z,3.20
2018-06-19T01:00:07.647Z,3.97
2018-06-19T01:02:36.147Z,3.20
2018-06-19T01:05:04.623Z,3.90
2018-06-19T01:07:33.094Z,3.40
2018-06-19T01:10:01.531Z,3.40
2018-06-19T01:12:30.013Z,3.70
2018-06-19T01:14:58.475Z,3.43
2018-06-19T01:17:26.934Z,3.67
2018-06-19T01:19:55.442Z,3.17
2018-06-19T01:22:23.908Z,3.00
2018-06-19T01:24:52.387Z,4.10
2018-06-19T01:27:20.876Z,3.13
2018-06-19T01:29:49.335Z,3.63
2018-06-19T01:32:17.782Z,3.63
2018-06-19T01:34:46.234Z,3.17
2018-06-19T01:37:14.721Z,3.13
2018-06-19T01:39:43.219Z,3.73
2018-06-19T01:42:11.671Z,3.10
2018-06-19T01:44:40.141Z,3.70
2018-06-19T01:47:08.586Z,3.87
2018-06-19T01:49:37.058Z,3.70
2018-06-19T01:52:05.517Z,4.07
2018-06-19T01:54:34.007Z,3.67
2018-06-19T01:57:02.511Z,3.63
2018-06-19T01:59:30.991Z,3.80
2018-06-19T02:01:59.444Z,3.60
2018-06-19T02:04:27.938Z,3.27
2018-06-19T02:06:56.398Z,4.10
2018-06-19T02:09:24.866Z,4.40
2018-06-19T02:11:53.010Z,3.87
2018-06-19T02:14:21.506Z,4.20
2018-06-19T02:16:49.991Z,3.77
2018-06-19T02:19:18.492Z,3.63
2018-06-19T02:21:46.947Z,3.80
2018-06-19T02:24:15.419Z,4.50
2018-06-19T02:26:43.877Z,4.10
2018-06-19T02:29:12.357Z,4.00
2018-06-19T02:31:40.817Z,4.97
2018-06-19T02:34:09.338Z,4.30
2018-06-19T02:36:37.831Z,3.70
2018-06-19T02:39:09.639Z,4.20
2018-06-19T02:41:38.245Z,4.17
2018-06-19T02:44:06.871Z,3.90
2018-06-19T02:46:35.359Z,4.20
2018-06-19T02:49:04.135Z,3.23
2018-06-19T02:51:32.634Z,4.40
2018-06-19T02:54:01.154Z,3.70
2018-06-19T02:56:29.623Z,3.40
2018-06-19T02:58:58.098Z,4.03
2018-06-19T03:01:26.554Z,4.23
2018-06-19T03:03:55.146Z,4.17
2018-06-19T03:06:23.663Z,4.13
2018-06-19T03:08:52.118Z,3.83
2018-06-19T03:11:20.596Z,4.40
2018-06-19T03:13:49.067Z,3.63
2018-06-19T03:16:17.633Z,4.60
2018-06-19T03:18:46.081Z,4.63
2018-06-19T03:21:14.600Z,4.67
2018-06-19T03:23:43.098Z,4.50
2018-06-19T03:26:12.705Z,4.70
2018-06-19T03:28:41.200Z,4.60
2018-06-19T03:31:09.878Z,4.23
2018-06-19T03:33:38.988Z,3.93
2018-06-19T03:36:07.822Z,4.40
2018-06-19T03:38:36.251Z,3.90
2018-06-19T03:41:04.714Z,5.10
2018-06-19T03:43:33.149Z,3.47
2018-06-19T03:46:01.614Z,4.53
2018-06-19T03:48:30.046Z,4.10
2018-06-19T03:50:58.579Z,4.13
2018-06-19T03:53:27.018Z,3.57
2018-06-19T03:55:55.540Z,3.67
2018-06-19T03:58:24.049Z,4.13
2018-06-19T04:00:52.912Z,4.40
2018-06-19T04:03:21.333Z,4.23
2018-06-19T04:05:49.884Z,4.70
2018-06-19T04:08:18.306Z,5.00
2018-06-19T04:10:46.786Z,4.70
2018-06-19T04:13:15.283Z,5.37
2018-06-19T04:15:43.737Z,5.30
2018-06-19T04:18:12.154Z,4.53
2018-06-19T04:20:40.625Z,4.13
2018-06-19T04:23:09.047Z,4.10
2018-06-19T04:25:37.483Z,4.10
2018-06-19T04:28:06.058Z,4.73
2018-06-19T04:30:34.597Z,3.63
2018-06-19T04:33:03.089Z,4.23
2018-06-19T04:35:31.589Z,4.40
2018-06-19T04:38:00.078Z,3.87
2018-06-19T04:40:28.506Z,3.60
2018-06-19T04:42:57.002Z,4.93
2018-06-19T04:45:25.447Z,4.17
2018-06-19T04:47:53.906Z,3.60
2018-06-19T04:50:22.381Z,4.03
2018-06-19T04:52:50.939Z,3.67
2018-06-19T04:55:19.378Z,4.33
2018-06-19T04:57:47.853Z,4.83
2018-06-19T05:00:16.330Z,4.67
2018-06-19T05:02:44.837Z,3.83
2018-06-19T05:05:14.266Z,4.20
2018-06-19T05:07:42.706Z,4.73
2018-06-19T05:10:11.154Z,5.40
2018-06-19T05:12:39.657Z,5.27
2018-06-19T05:15:08.138Z,6.00
2018-06-19T05:17:36.590Z,5.20
2018-06-19T05:20:05.086Z,5.90
2018-06-19T05:22:33.654Z,6.30
2018-06-19T05:25:01.782Z,7.53
2018-06-19T05:27:30.238Z,7.40
2018-06-19T05:29:58.665Z,5.77
2018-06-19T05:32:27.134Z,5.00
2018-06-19T05:34:55.566Z,5.50
2018-06-19T05:37:24.088Z,5.30
2018-06-19T05:39:52.542Z,4.93
2018-06-19T05:42:20.994Z,4.20
2018-06-19T05:44:49.442Z,3.90
2018-06-19T05:47:17.890Z,4.30
2018-06-19T05:49:46.330Z,3.63
2018-06-19T05:52:14.802Z,3.97
2018-06-19T05:54:43.241Z,4.17
2018-06-19T05:57:11.674Z,4.67
2018-06-19T05:59:40.200Z,4.47
2018-06-19T06:02:08.763Z,4.43
2018-06-19T06:04:37.232Z,3.90
2018-06-19T06:07:05.870Z,3.87
2018-06-19T06:09:34.326Z,3.63
2018-06-19T06:12:02.742Z,4.30
2018-06-19T06:14:31.195Z,3.90
2018-06-19T06:16:59.614Z,3.80
2018-06-19T06:19:28.066Z,4.77
2018-06-19T06:21:56.499Z,4.10
2018-06-19T06:24:24.971Z,3.90
2018-06-19T06:26:53.406Z,3.70
2018-06-19T06:29:21.907Z,3.60
2018-06-19T06:31:50.398Z,3.97
2018-06-19T06:34:18.884Z,3.70
2018-06-19T06:36:47.354Z,3.47
2018-06-19T06:39:15.838Z,3.57
2018-06-19T06:41:44.322Z,3.63
2018-06-19T06:44:12.809Z,3.00
2018-06-19T06:46:41.306Z,3.20
2018-06-19T06:49:09.786Z,3.00
2018-06-19T06:51:38.257Z,3.60
2018-06-19T06:54:06.746Z,3.50
2018-06-19T06:56:35.225Z,3.77
2018-06-19T06:59:03.700Z,3.90
2018-06-19T07:01:32.161Z,3.57
2018-06-19T07:04:00.625Z,3.90
2018-06-19T07:06:29.133Z,3.30
2018-06-19T07:08:57.627Z,2.90
2018-06-19T07:11:26.089Z,3.40
2018-06-19T07:13:54.586Z,3.63
2018-06-19T07:16:23.074Z,3.10
2018-06-19T07:18:51.553Z,3.50
2018-06-19T07:21:20.035Z,3.30
2018-06-19T07:23:48.492Z,6.07
2018-06-19T07:26:16.966Z,2.60
2018-06-19T07:28:45.430Z,3.30
2018-06-19T07:31:13.931Z,2.83
2018-06-19T07:33:42.386Z,2.80
2018-06-19T07:36:10.895Z,3.13
2018-06-19T07:38:39.353Z,3.00
2018-06-19T07:41:07.835Z,3.30
2018-06-19T07:43:36.309Z,3.10
2018-06-19T07:46:04.837Z,2.70
2018-06-19T07:48:33.286Z,2.47
2018-06-19T07:51:01.745Z,2.93
2018-06-19T07:53:30.186Z,2.57
2018-06-19T07:55:58.645Z,3.30
2018-06-19T07:58:27.106Z,2.60
2018-06-19T08:00:55.574Z,3.00
2018-06-19T08:03:24.049Z,3.07
2018-06-19T08:05:52.587Z,2.70
2018-06-19T08:08:21.049Z,2.67
2018-06-19T08:10:49.521Z,2.40
2018-06-19T08:13:18.002Z,2.70
2018-06-19T08:15:46.482Z,2.83
2018-06-19T08:18:14.918Z,2.97
2018-06-19T08:20:43.358Z,2.50
2018-06-19T08:23:11.833Z,2.63
2018-06-19T08:25:40.301Z,2.57
2018-06-19T08:28:08.759Z,3.20
2018-06-19T08:30:37.215Z,2.80
2018-06-19T08:33:05.487Z,3.10
2018-06-19T08:35:33.974Z,3.03
2018-06-19T08:38:02.438Z,3.37
2018-06-19T08:40:30.863Z,3.40
2018-06-19T08:42:59.306Z,3.13
2018-06-19T08:45:27.723Z,2.93
2018-06-19T08:47:56.270Z,3.57
2018-06-19T08:50:24.648Z,3.70
2018-06-19T08:52:53.127Z,3.07
2018-06-19T08:55:21.603Z,3.17
2018-06-19T08:57:50.042Z,2.87
2018-06-19T09:00:18.473Z,2.67
2018-06-19T09:02:46.906Z,3.07
2018-06-19T09:05:15.331Z,2.80
2018-06-19T09:07:43.861Z,2.83
2018-06-19T09:10:12.283Z,2.90
2018-06-19T09:12:40.743Z,2.90
2018-06-19T09:15:08.907Z,2.97
2018-06-19T09:17:37.365Z,2.87
2018-06-19T09:20:05.844Z,2.73
2018-06-19T09:22:34.294Z,2.73
2018-06-19T09:25:02.801Z,3.27
2018-06-19T09:27:31.230Z,3.07
2018-06-19T09:29:59.674Z,3.17
2018-06-19T09:32:28.120Z,2.97
2018-06-19T09:34:56.571Z,3.00
2018-06-19T09:37:25.042Z,2.60
2018-06-19T09:39:53.493Z,2.90
2018-06-19T09:42:21.937Z,2.70
2018-06-19T09:44:50.426Z,2.70
2018-06-19T09:47:18.865Z,2.80
2018-06-19T09:49:47.405Z,2.60
2018-06-19T09:52:15.822Z,2.97
2018-06-19T09:54:44.358Z,2.63
2018-06-19T09:57:12.775Z,2.60
2018-06-19T09:59:41.303Z,2.70
2018-06-19T10:02:09.814Z,2.50
2018-06-19T10:04:38.276Z,2.43
2018-06-19T10:07:06.730Z,3.00
2018-06-19T10:09:35.214Z,2.60
2018-06-19T10:12:03.697Z,2.23
2018-06-19T10:14:32.157Z,2.23
2018-06-19T10:17:00.594Z,2.20
2018-06-19T10:19:29.063Z,2.40
2018-06-19T10:21:57.483Z,2.30
2018-06-19T10:24:25.958Z,2.30
2018-06-19T10:26:54.387Z,2.07
2018-06-19T10:29:22.814Z,2.53
2018-06-19T10:31:51.271Z,2.40
2018-06-19T10:34:19.690Z,2.33
2018-06-19T10:36:48.222Z,2.30
2018-06-19T10:39:16.686Z,2.60
2018-06-19T10:41:45.207Z,2.60
2018-06-19T10:44:13.666Z,2.10
2018-06-19T10:46:42.159Z,2.43
2018-06-19T10:49:10.627Z,2.23
2018-06-19T10:51:39.173Z,2.47
2018-06-19T10:54:07.691Z,2.90
2018-06-19T10:56:36.178Z,2.40
2018-06-19T10:59:04.754Z,2.00
2018-06-19T11:01:33.215Z,2.17
2018-06-19T11:04:01.726Z,2.20
2018-06-19T11:06:30.251Z,2.30
2018-06-19T11:08:58.756Z,2.27
2018-06-19T11:11:27.214Z,2.20
2018-06-19T11:13:55.666Z,2.73
2018-06-19T11:16:24.159Z,2.03
2018-06-19T11:18:52.626Z,2.37
2018-06-19T11:21:21.104Z,2.30
2018-06-19T11:23:49.664Z,1.97
2018-06-19T11:26:18.093Z,2.20
2018-06-19T11:28:46.591Z,2.23
2018-06-19T11:31:15.066Z,2.30
2018-06-19T11:33:43.514Z,2.10
2018-06-19T11:36:11.978Z,2.07
2018-06-19T11:38:40.440Z,2.40
2018-06-19T11:41:08.851Z,2.03
2018-06-19T11:43:37.294Z,1.80
2018-06-19T11:46:05.818Z,1.67
2018-06-19T11:48:34.290Z,2.37
2018-06-19T11:51:02.733Z,1.70
2018-06-19T11:53:31.180Z,2.50
2018-06-19T11:55:59.617Z,2.30
2018-06-19T11:58:28.085Z,2.43
2018-06-19T12:00:56.209Z,2.30
2018-06-19T12:03:24.689Z,2.30
2018-06-19T12:05:53.170Z,2.10
2018-06-19T12:08:21.667Z,1.67
2018-06-19T12:10:50.140Z,2.30
2018-06-19T12:13:18.589Z,1.60
2018-06-19T12:15:47.069Z,1.87
2018-06-19T12:18:15.567Z,1.80
2018-06-19T12:20:44.053Z,2.13
2018-06-19T12:23:12.614Z,2.00
2018-06-19T12:25:41.038Z,1.70
2018-06-19T12:28:09.554Z,1.60
2018-06-19T12:30:37.981Z,1.83
2018-06-19T12:33:06.435Z,2.23
2018-06-19T12:35:34.922Z,2.00
2018-06-19T12:38:03.386Z,2.00
2018-06-19T12:40:31.814Z,2.20
2018-06-19T12:43:00.317Z,1.90
2018-06-19T12:45:28.735Z,2.10
2018-06-19T12:47:57.183Z,1.80
2018-06-19T12:50:39.187Z,1.73
2018-06-19T12:53:19.525Z,1.60
2018-06-19T12:55:59.738Z,2.27
2018-06-19T12:58:28.203Z,1.67
2018-06-19T13:00:56.662Z,1.77
2018-06-19T13:03:36.318Z,1.87
2018-06-19T13:06:15.950Z,1.50
2018-06-19T13:08:46.638Z,1.90
2018-06-19T13:11:15.904Z,2.57
2018-06-19T13:13:55.643Z,1.57
2018-06-19T13:16:35.724Z,2.10
2018-06-19T13:19:15.492Z,1.63
2018-06-19T13:21:44.022Z,1.70
2018-06-19T13:24:12.514Z,1.70
2018-06-19T13:26:40.980Z,1.87
2018-06-19T13:29:49.451Z,2.17
2018-06-19T13:32:17.877Z,1.83
2018-06-19T13:34:46.495Z,1.70
2018-06-19T13:37:14.977Z,1.37
2018-06-19T13:39:43.958Z,1.80
2018-06-19T13:42:24.097Z,1.57
2018-06-19T13:44:57.399Z,1.60
2018-06-19T13:47:25.887Z,2.07
2018-06-19T13:49:54.375Z,1.67
2018-06-19T13:52:22.897Z,1.57
2018-06-19T13:54:51.354Z,1.40
2018-06-19T13:57:35.142Z,1.60
2018-06-19T14:00:05.162Z,1.40
2018-06-19T14:02:33.655Z,1.40
2018-06-19T14:05:02.707Z,1.50
2018-06-19T14:07:33.045Z,1.50
2018-06-19T14:10:21.157Z,1.40
2018-06-19T14:12:50.887Z,1.27
2018-06-19T14:15:20.669Z,1.50
2018-06-19T14:17:49.154Z,1.40
2018-06-19T14:20:17.651Z,1.67
2018-06-19T14:22:45.798Z,1.30
2018-06-19T14:25:14.298Z,1.53
2018-06-19T14:27:42.762Z,1.70
2018-06-19T14:30:11.239Z,1.60
2018-06-19T14:32:39.734Z,1.30
2018-06-19T14:35:07.891Z,1.37
2018-06-19T14:37:36.401Z,1.20
2018-06-19T14:40:05.086Z,1.97
2018-06-19T14:42:33.634Z,1.70
2018-06-19T14:45:02.128Z,1.10
2018-06-19T14:47:30.558Z,1.60
2018-06-19T14:49:59.790Z,1.40
2018-06-19T14:52:28.643Z,1.80
2018-06-19T14:54:57.125Z,1.20
2018-06-19T14:57:25.627Z,1.67
2018-06-19T14:59:54.124Z,1.40
2018-06-19T15:02:22.257Z,1.77
2018-06-19T15:04:50.754Z,1.43
2018-06-19T15:07:19.199Z,1.80
2018-06-19T15:09:47.667Z,1.30
2018-06-19T15:12:16.124Z,1.33
2018-06-19T15:14:44.629Z,1.70
2018-06-19T15:17:13.071Z,1.70
2018-06-19T15:19:41.646Z,1.60
2018-06-19T15:22:10.090Z,1.40
2018-06-19T15:24:38.559Z,1.53
2018-06-19T15:27:07.037Z,1.53
2018-06-19T15:29:35.533Z,1.20
2018-06-19T15:32:03.969Z,1.50
2018-06-19T15:34:32.450Z,1.60
2018-06-19T15:37:00.931Z,1.50
2018-06-19T15:39:29.370Z,2.07
2018-06-19T15:41:57.804Z,1.87
2018-06-19T15:44:26.233Z,1.57
2018-06-19T15:46:54.750Z,2.57
2018-06-19T15:49:23.226Z,1.63
2018-06-19T15:51:51.648Z,1.90
2018-06-19T15:54:19.806Z,1.73
2018-06-19T15:56:48.229Z,1.97
2018-06-19T15:59:16.678Z,1.40
2018-06-19T16:01:45.146Z,2.40
2018-06-19T16:04:14.530Z,1.90
2018-06-19T16:06:43.042Z,2.53
2018-06-19T16:09:11.846Z,2.30
2018-06-19T16:11:40.307Z,2.60
2018-06-19T16:14:08.753Z,2.50
2018-06-19T16:16:37.195Z,2.30
2018-06-19T16:19:05.647Z,1.87
2018-06-19T16:21:34.103Z,1.90
2018-06-19T16:24:02.614Z,2.07
2018-06-19T16:26:31.054Z,1.60
2018-06-19T16:28:59.483Z,2.10
2018-06-19T16:31:27.950Z,1.77
2018-06-19T16:33:56.375Z,1.80
2018-06-19T16:36:24.858Z,1.63
2018-06-19T16:38:53.297Z,1.90
2018-06-19T16:41:21.747Z,2.10
2018-06-19T16:43:50.162Z,2.10
2018-06-19T16:46:18.653Z,2.37
2018-06-19T16:48:47.098Z,1.93
2018-06-19T16:51:15.578Z,1.77
2018-06-19T16:53:44.033Z,1.93
2018-06-19T16:56:12.450Z,2.00
2018-06-19T16:58:40.887Z,3.23
2018-06-19T17:01:09.353Z,2.03
2018-06-19T17:03:37.776Z,2.10
2018-06-19T17:06:06.223Z,2.07
2018-06-19T17:08:34.666Z,1.50
2018-06-19T17:11:03.127Z,1.90
2018-06-19T17:13:31.549Z,1.93
2018-06-19T17:16:00.017Z,2.10
2018-06-19T17:18:28.458Z,1.77
2018-06-19T17:20:56.905Z,1.97
2018-06-19T17:23:25.314Z,2.00
2018-06-19T17:25:53.743Z,1.93
2018-06-19T17:28:22.205Z,2.10
2018-06-19T17:30:50.626Z,2.00
2018-06-19T17:33:19.073Z,2.50
2018-06-19T17:35:47.530Z,2.30
2018-06-19T17:38:16.015Z,2.03
2018-06-19T17:40:44.532Z,1.87
2018-06-19T17:43:12.962Z,2.00
2018-06-19T17:45:41.406Z,1.60
2018-06-19T17:48:09.886Z,2.20
2018-06-19T17:50:38.343Z,2.40
2018-06-19T17:53:07.064Z,2.30
2018-06-19T17:55:35.538Z,2.20
2018-06-19T17:58:04.009Z,2.10
2018-06-19T18:00:32.471Z,2.20
2018-06-19T18:03:00.958Z,2.13
2018-06-19T18:05:29.405Z,1.77
2018-06-19T18:07:57.861Z,2.43
2018-06-19T18:10:26.323Z,2.10
2018-06-19T18:12:54.913Z,2.30
2018-06-19T18:15:23.442Z,2.20
2018-06-19T18:17:51.869Z,1.90
2018-06-19T18:20:20.314Z,2.37
2018-06-19T18:22:48.783Z,2.23
2018-06-19T18:25:18.035Z,2.50
2018-06-19T18:27:46.465Z,2.30
2018-06-19T18:30:14.935Z,2.43
2018-06-19T18:32:43.457Z,2.00
2018-06-19T18:35:11.909Z,2.27
2018-06-19T18:37:40.376Z,2.60
2018-06-19T18:40:08.838Z,2.40
2018-06-19T18:42:37.275Z,2.93
2018-06-19T18:45:05.777Z,2.67
2018-06-19T18:47:33.913Z,2.57
2018-06-19T18:50:02.369Z,2.87
2018-06-19T18:52:30.822Z,2.30
2018-06-19T18:54:59.301Z,2.70
2018-06-19T18:57:27.762Z,2.50
2018-06-19T18:59:56.238Z,2.50
2018-06-19T19:02:24.706Z,1.93
2018-06-19T19:04:53.230Z,2.33
2018-06-19T19:07:21.698Z,2.40
2018-06-19T19:09:55.490Z,2.90
2018-06-19T19:12:23.979Z,2.97
2018-06-19T19:14:57.818Z,2.40
2018-06-19T19:17:31.685Z,2.63
2018-06-19T19:20:00.236Z,2.40
2018-06-19T19:22:28.679Z,2.40
2018-06-19T19:24:57.142Z,2.70
2018-06-19T19:27:30.890Z,2.70
2018-06-19T19:29:59.411Z,2.50
2018-06-19T19:32:27.870Z,2.80
2018-06-19T19:34:56.337Z,2.70
2018-06-19T19:37:30.229Z,2.50
2018-06-19T19:39:58.701Z,3.00
2018-06-19T19:42:27.149Z,3.00
2018-06-19T19:44:55.711Z,2.70
2018-06-19T19:47:29.602Z,3.40
2018-06-19T19:49:58.062Z,2.77
2018-06-19T19:52:26.486Z,2.50
2018-06-19T19:54:54.939Z,3.00
2018-06-19T19:57:28.647Z,2.87
2018-06-19T19:59:57.190Z,3.63
2018-06-19T20:02:25.638Z,3.20
2018-06-19T20:04:54.118Z,3.30
2018-06-19T20:07:22.606Z,3.13
2018-06-19T20:09:51.561Z,2.93
2018-06-19T20:12:20.030Z,2.90
2018-06-19T20:14:48.460Z,3.50
2018-06-19T20:17:16.966Z,2.77
2018-06-19T20:19:45.414Z,3.20
2018-06-19T20:22:13.891Z,3.20
2018-06-19T20:24:42.310Z,2.93
2018-06-19T20:27:10.754Z,2.97
2018-06-19T20:29:39.193Z,3.57
2018-06-19T20:32:07.698Z,3.27
2018-06-19T20:34:36.121Z,2.70
2018-06-19T20:37:04.589Z,3.47
2018-06-19T20:39:33.045Z,3.40
2018-06-19T20:42:01.544Z,3.13
2018-06-19T20:44:30.624Z,3.40
2018-06-19T20:46:59.067Z,3.17
2018-06-19T20:49:27.500Z,2.97
2018-06-19T20:51:55.943Z,3.20
2018-06-19T20:54:24.711Z,2.97
2018-06-19T20:56:53.142Z,3.13
2018-06-19T20:59:21.576Z,3.47
2018-06-19T21:01:50.044Z,3.20
2018-06-19T21:04:18.538Z,3.17
2018-06-19T21:06:47.212Z,3.40
2018-06-19T21:09:15.649Z,3.10
2018-06-19T21:11:44.079Z,3.10
2018-06-19T21:14:12.558Z,3.20
2018-06-19T21:16:40.986Z,3.67
2018-06-19T21:19:09.427Z,4.13
2018-06-19T21:21:38.158Z,4.10
2018-06-19T21:24:06.888Z,3.73
2018-06-19T21:26:35.326Z,3.47
2018-06-19T21:29:03.786Z,3.60
2018-06-19T21:31:32.193Z,3.40
2018-06-19T21:34:00.690Z,3.90
2018-06-19T21:36:29.142Z,4.20
2018-06-19T21:38:58.212Z,3.83
2018-06-19T21:41:26.625Z,4.50
2018-06-19T21:43:55.365Z,3.93
2018-06-19T21:46:23.783Z,3.77
2018-06-19T21:48:52.258Z,4.87
2018-06-19T21:51:20.670Z,4.40
2018-06-19T21:53:49.110Z,4.43
2018-06-19T21:56:17.519Z,4.67
2018-06-19T21:58:45.958Z,5.37
2018-06-19T22:01:14.382Z,4.70
2018-06-19T22:03:42.829Z,5.13
2018-06-19T22:06:11.246Z,4.83
2018-06-19T22:08:45.118Z,4.90
2018-06-19T22:11:14.429Z,6.03
2018-06-19T22:13:42.873Z,5.77
2018-06-19T22:16:11.331Z,4.73
2018-06-19T22:18:39.782Z,6.20
2018-06-19T22:21:08.451Z,5.90
2018-06-19T22:23:36.929Z,5.17
2018-06-19T22:26:05.454Z,5.10
2018-06-19T22:28:34.297Z,4.70
2018-06-19T22:31:02.735Z,5.00
2018-06-19T22:33:31.178Z,5.40
2018-06-19T22:35:59.658Z,5.57
2018-06-19T22:38:28.152Z,5.43
2018-06-19T22:40:56.598Z,6.30
2018-06-19T22:43:25.028Z,5.60
2018-06-19T22:45:53.503Z,5.40
2018-06-19T22:48:21.961Z,4.90
2018-06-19T22:50:50.431Z,6.07
2018-06-19T22:53:19.083Z,4.90
2018-06-19T22:55:47.554Z,5.53
2018-06-19T22:58:16.013Z,5.23
2018-06-19T23:00:44.473Z,5.13
2018-06-19T23:03:12.917Z,5.10
2018-06-19T23:05:41.381Z,5.30
2018-06-19T23:08:09.834Z,5.70
2018-06-19T23:10:38.305Z,5.47
2018-06-19T23:13:06.757Z,5.73
2018-06-19T23:15:35.226Z,5.50
2018-06-19T23:18:03.683Z,5.23
2018-06-19T23:20:32.138Z,5.40
2018-06-19T23:23:00.578Z,4.60
2018-06-19T23:25:29.045Z,5.10
2018-06-19T23:27:58.335Z,5.57
2018-06-19T23:30:26.819Z,4.80
2018-06-19T23:32:55.260Z,5.23
2018-06-19T23:35:23.718Z,5.53
2018-06-19T23:37:52.183Z,6.73
2018-06-19T23:40:20.662Z,6.30
2018-06-19T23:42:49.110Z,4.97
2018-06-19T23:45:17.579Z,5.93
2018-06-19T23:47:46.018Z,6.07
2018-06-19T23:50:14.461Z,6.20
2018-06-19T23:52:42.926Z,5.50
2018-06-19T23:55:11.379Z,6.10
2018-06-19T23:57:39.867Z,6.40
